Time;durP1;ratioP1;P1;durP2;ratioP2;P2;SDS_P1;SDS_P2;PMS_P1;PMS_P2;Temp;Humidity;BMP_temperature;BMP_pressure;BME280_temperature;BME280_humidity;BME280_pressure;Samples;Min_cycle;Max_cycle;Signal;HPM_P1;HPM_P2
2021/09/19 00:00:22;;;;;;;7.83;5.90;;;;;;;10.64;98.75;100096.89;1690710;85;21091;-92
2021/09/19 00:02:48;;;;;;;9.93;6.17;;;;;;;10.62;98.77;100090.88;1727610;82;20983;-92
2021/09/19 00:05:15;;;;;;;9.13;5.35;;;;;;;10.62;99.08;100088.24;1719671;83;21482;-92
2021/09/19 00:07:42;;;;;;;11.08;6.42;;;;;;;10.63;99.15;100089.94;1719297;83;21012;-92
2021/09/19 00:10:12;;;;;;;6.03;4.60;;;;;;;10.63;98.94;100094.36;1719751;83;21007;-91
2021/09/19 00:12:39;;;;;;;6.95;5.47;;;;;;;10.61;98.74;100093.16;1726782;82;21484;-92
2021/09/19 00:15:08;;;;;;;8.43;6.15;;;;;;;10.60;98.84;100088.86;1721549;82;21000;-90
2021/09/19 00:17:35;;;;;;;8.00;5.03;;;;;;;10.59;98.86;100090.28;1720544;83;21457;-93
2021/09/19 00:20:01;;;;;;;7.65;5.72;;;;;;;10.57;98.40;100089.09;1720784;83;21488;-91
2021/09/19 00:22:27;;;;;;;9.30;5.58;;;;;;;10.42;98.55;100069.14;1720500;83;21069;-93
2021/09/19 00:24:53;;;;;;;7.58;5.00;;;;;;;10.42;98.55;100069.14;1720817;83;20983;-92
2021/09/19 00:27:20;;;;;;;6.50;4.92;;;;;;;10.52;98.65;100093.86;1720585;83;21307;-91
2021/09/19 00:29:46;;;;;;;6.95;4.58;;;;;;;10.50;98.68;100092.67;1720414;83;21064;-92
2021/09/19 00:32:12;;;;;;;8.00;5.92;;;;;;;10.50;98.75;100095.80;1720682;83;21057;-91
2021/09/19 00:34:38;;;;;;;8.63;5.05;;;;;;;10.48;98.55;100100.33;1721714;82;21019;-91
2021/09/19 00:37:05;;;;;;;6.67;5.35;;;;;;;10.47;98.35;100100.81;1720481;83;21017;-92
2021/09/19 00:39:31;;;;;;;8.53;5.53;;;;;;;10.46;98.07;100100.92;1720585;83;21823;-91
2021/09/19 00:41:57;;;;;;;6.97;5.33;;;;;;;10.42;98.36;100100.31;1721491;82;21017;-91
2021/09/19 00:44:27;;;;;;;6.87;5.22;;;;;;;10.41;98.49;100099.95;1720737;83;20981;-90
2021/09/19 00:46:55;;;;;;;7.37;5.05;;;;;;;10.40;98.65;100098.73;1720556;83;21567;-90
2021/09/19 00:49:23;;;;;;;7.55;4.90;;;;;;;10.41;98.86;100098.64;1699183;83;22315;-91
2021/09/19 00:51:50;;;;;;;7.92;5.00;;;;;;;10.40;98.43;100100.05;1690680;85;21555;-90
2021/09/19 00:54:17;;;;;;;7.22;5.15;;;;;;;10.38;98.73;100095.39;1690899;85;21075;-92
2021/09/19 00:56:45;;;;;;;9.78;5.78;;;;;;;10.37;98.64;100096.36;1690875;84;21510;-91
2021/09/19 00:59:12;;;;;;;7.12;5.10;;;;;;;10.34;98.51;100096.11;1690952;85;21018;-91
2021/09/19 01:01:39;;;;;;;7.05;4.33;;;;;;;10.35;98.60;100094.30;1720358;82;20997;-90
2021/09/19 01:04:06;;;;;;;7.62;4.85;;;;;;;10.35;98.68;100094.30;1738934;81;21045;-91
2021/09/19 01:06:32;;;;;;;7.15;5.35;;;;;;;10.35;98.80;100092.98;1738861;82;21057;-91
2021/09/19 01:08:59;;;;;;;9.45;5.50;;;;;;;10.34;98.68;100096.11;1758090;82;21005;-91
2021/09/19 01:11:25;;;;;;;7.78;5.28;;;;;;;10.33;98.48;100095.27;1738070;81;21536;-91
2021/09/19 01:13:51;;;;;;;9.73;5.45;;;;;;;10.33;98.50;100091.77;1726487;82;20938;-92
2021/09/19 01:16:19;;;;;;;10.18;5.83;;;;;;;10.31;98.21;100093.21;1758398;82;21037;-91
2021/09/19 01:18:47;;;;;;;9.30;6.03;;;;;;;10.27;98.13;100089.13;1758253;82;21658;-90
2021/09/19 01:21:17;;;;;;;10.08;5.72;;;;;;;10.25;98.10;100089.68;1758252;81;20990;-92
2021/09/19 01:23:59;;;;;;;7.47;5.50;;;;;;;10.22;98.21;100080.68;1758123;82;21029;-92
2021/09/19 01:26:26;;;;;;;8.15;6.05;;;;;;;10.21;98.00;100087.41;1758195;81;21080;-94
2021/09/19 01:28:53;;;;;;;6.97;5.05;;;;;;;10.17;98.05;100084.61;1742485;81;21013;-91
2021/09/19 01:31:20;;;;;;;8.20;5.12;;;;;;;10.13;97.91;100089.75;1720740;83;21033;-91
2021/09/19 01:33:46;;;;;;;9.95;5.65;;;;;;;10.10;97.91;100090.81;1720656;83;20982;-93
2021/09/19 01:36:13;;;;;;;8.60;5.28;;;;;;;10.08;97.94;100084.84;1720803;83;21472;-92
2021/09/19 01:38:39;;;;;;;7.50;5.58;;;;;;;10.07;97.77;100088.44;1720801;83;20962;-92
2021/09/19 01:41:05;;;;;;;8.85;4.87;;;;;;;10.03;97.79;100087.80;1720743;83;21049;-93
2021/09/19 01:43:32;;;;;;;10.35;5.85;;;;;;;10.00;97.99;100080.59;1720635;83;21005;-92
2021/09/19 01:46:04;;;;;;;8.58;5.33;;;;;;;10.01;97.93;100084.94;1726844;81;20981;-93
2021/09/19 01:48:35;;;;;;;6.15;5.12;;;;;;;10.00;97.84;100083.23;1752317;81;21024;-92
2021/09/19 01:51:04;;;;;;;7.65;4.95;;;;;;;9.96;97.84;100080.46;1719567;83;21024;-93
2021/09/19 01:53:30;;;;;;;6.08;4.37;;;;;;;9.94;97.78;100089.81;1719537;83;21060;-91
2021/09/19 01:55:56;;;;;;;6.50;4.75;;;;;;;9.92;97.68;100089.55;1719654;83;20987;-91
2021/09/19 01:58:24;;;;;;;6.35;4.97;;;;;;;9.91;97.81;100093.16;1719190;83;21011;-92
2021/09/19 02:00:58;;;;;;;8.40;5.03;;;;;;;9.90;97.73;100083.55;1715483;83;21019;-91
2021/09/19 02:03:24;;;;;;;5.60;4.50;;;;;;;9.86;97.43;100083.77;1689437;85;21047;-90
2021/09/19 02:05:51;;;;;;;11.43;6.17;;;;;;;9.83;97.46;100081.84;1690812;85;21039;-92
2021/09/19 02:08:17;;;;;;;5.40;4.60;;;;;;;9.80;97.39;100084.22;1705924;82;20950;-92
2021/09/19 02:10:43;;;;;;;7.90;4.87;;;;;;;9.76;97.24;100074.86;1695247;83;21452;-91
2021/09/19 02:13:09;;;;;;;7.33;5.22;;;;;;;9.72;97.22;100074.73;1697826;82;21354;-91
2021/09/19 02:15:35;;;;;;;6.97;4.95;;;;;;;9.70;97.19;100071.34;1719534;83;20995;-92
2021/09/19 02:18:01;;;;;;;10.50;5.92;;;;;;;9.68;97.20;100071.95;1719503;83;21010;-94
2021/09/19 02:20:27;;;;;;;9.75;5.62;;;;;;;9.66;97.12;100073.85;1724771;82;21108;-90
2021/09/19 02:22:53;;;;;;;7.30;5.05;;;;;;;9.66;97.40;100079.12;1750277;82;20982;-92
2021/09/19 02:25:20;;;;;;;6.70;5.00;;;;;;;9.66;97.51;100076.48;1733904;82;21009;-89
2021/09/19 02:27:46;;;;;;;8.83;4.70;;;;;;;9.65;97.34;100068.70;1720501;83;21551;-91
2021/09/19 02:30:15;;;;;;;7.85;5.15;;;;;;;9.62;97.14;100077.19;1720651;83;21006;-91
2021/09/19 02:32:41;;;;;;;8.00;4.90;;;;;;;9.60;97.11;100076.45;1720462;83;21045;-90
2021/09/19 02:35:09;;;;;;;8.10;5.17;;;;;;;9.57;96.99;100075.34;1720749;83;21449;-91
2021/09/19 02:37:38;;;;;;;7.42;5.33;;;;;;;9.56;96.94;100081.58;1752629;82;21009;-90
2021/09/19 02:40:06;;;;;;;9.48;5.22;;;;;;;9.52;96.86;100076.17;1758120;81;20993;-91
2021/09/19 02:42:33;;;;;;;9.45;5.95;;;;;;;9.50;96.73;100084.65;1758041;81;21018;-90
2021/09/19 02:44:59;;;;;;;7.50;4.53;;;;;;;9.46;96.81;100077.93;1724152;82;20997;-91
2021/09/19 02:47:25;;;;;;;6.47;4.67;;;;;;;9.43;96.69;100083.41;1720551;83;21022;-90
2021/09/19 02:49:51;;;;;;;7.30;5.17;;;;;;;9.38;96.76;100075.86;1720653;83;20971;-90
2021/09/19 02:52:17;;;;;;;6.47;5.03;;;;;;;9.36;96.74;100074.28;1727774;81;20977;-91
2021/09/19 02:54:43;;;;;;;9.95;5.05;;;;;;;9.32;96.57;100080.72;1728187;83;20993;-92
2021/09/19 02:57:08;;;;;;;9.80;5.50;;;;;;;9.23;96.78;100078.73;1728050;83;20997;-90
2021/09/19 02:59:34;;;;;;;7.25;4.83;;;;;;;9.23;96.78;100078.73;1701573;83;21014;-90
2021/09/19 03:02:01;;;;;;;9.85;5.75;;;;;;;9.21;96.93;100079.30;1712105;82;21016;-90
2021/09/19 03:04:26;;;;;;;9.13;5.70;;;;;;;9.19;97.04;100079.43;1720615;83;20993;-90
2021/09/19 03:06:52;;;;;;;7.47;5.45;;;;;;;9.18;97.27;100076.89;1720412;83;21518;-91
2021/09/19 03:09:18;;;;;;;8.18;6.12;;;;;;;9.19;97.42;100086.01;1720674;83;21049;-90
2021/09/19 03:11:44;;;;;;;6.87;4.62;;;;;;;9.20;97.56;100087.68;1750142;81;21025;-90
2021/09/19 03:14:10;;;;;;;8.50;5.62;;;;;;;9.20;97.70;100083.73;1743188;82;21113;-90
2021/09/19 03:16:36;;;;;;;8.48;5.35;;;;;;;9.21;97.70;100080.14;1720511;83;21033;-90
2021/09/19 03:19:02;;;;;;;7.80;4.83;;;;;;;9.22;97.66;100078.38;1693863;83;20991;-91
2021/09/19 03:21:28;;;;;;;10.25;5.42;;;;;;;9.22;97.74;100083.16;1690812;85;21506;-91
2021/09/19 03:23:54;;;;;;;6.85;4.37;;;;;;;9.22;97.77;100077.90;1690740;85;20995;-90
2021/09/19 03:26:20;;;;;;;6.37;4.45;;;;;;;9.23;97.70;100081.36;1690864;84;21078;-91
2021/09/19 03:28:46;;;;;;;7.30;4.72;;;;;;;9.24;97.75;100080.41;1690836;85;21007;-90
2021/09/19 03:31:12;;;;;;;8.88;4.78;;;;;;;9.25;97.77;100080.80;1690737;85;21527;-90
2021/09/19 03:33:38;;;;;;;6.35;5.33;;;;;;;9.27;97.77;100081.50;1690782;85;21059;-90
2021/09/19 03:36:05;;;;;;;9.50;4.78;;;;;;;9.28;97.92;100077.91;1690827;85;21545;-90
2021/09/19 03:38:31;;;;;;;8.70;4.65;;;;;;;9.32;98.03;100082.88;1703714;83;20983;-89
2021/09/19 03:40:57;;;;;;;7.40;4.80;;;;;;;9.35;98.04;100084.45;1707956;83;21031;-90
2021/09/19 03:43:23;;;;;;;5.87;4.58;;;;;;;9.39;97.94;100092.49;1694794;83;21051;-90
2021/09/19 03:45:49;;;;;;;7.87;5.03;;;;;;;9.40;97.99;100091.05;1699928;83;21009;-89
2021/09/19 03:48:17;;;;;;;6.95;4.83;;;;;;;9.42;97.82;100090.12;1755669;82;20970;-89
2021/09/19 03:50:43;;;;;;;6.75;4.78;;;;;;;9.42;97.85;100084.37;1757934;82;21550;-89
2021/09/19 03:53:09;;;;;;;7.47;4.10;;;;;;;9.43;97.84;100084.73;1736925;81;20965;-89
2021/09/19 03:55:35;;;;;;;7.35;5.35;;;;;;;9.46;97.88;100081.88;1720662;83;21536;-88
2021/09/19 03:58:01;;;;;;;5.62;4.10;;;;;;;9.50;98.14;100087.77;1720492;83;21053;-89
2021/09/19 04:00:28;;;;;;;8.15;5.37;;;;;;;9.51;98.16;100089.44;1722973;81;20988;-90
2021/09/19 04:02:54;;;;;;;6.95;4.37;;;;;;;9.52;97.86;100088.03;1727963;83;20999;-89
2021/09/19 04:05:20;;;;;;;7.95;5.22;;;;;;;9.54;97.94;100095.36;1706597;83;21056;-90
2021/09/19 04:07:46;;;;;;;7.10;5.05;;;;;;;9.56;97.81;100093.91;1690716;84;21070;-90
2021/09/19 04:10:13;;;;;;;7.33;4.83;;;;;;;9.58;97.98;100097.29;1695064;82;21025;-89
2021/09/19 04:12:40;;;;;;;9.03;4.45;;;;;;;9.60;97.84;100101.95;1750455;82;21057;-89
2021/09/19 04:15:08;;;;;;;5.42;3.95;;;;;;;9.60;97.57;100106.74;1750455;82;21014;-90
2021/09/19 04:17:34;;;;;;;7.35;5.05;;;;;;;9.61;97.87;100107.61;1750296;82;20994;-90
2021/09/19 04:20:00;;;;;;;9.28;5.83;;;;;;;9.61;97.71;100103.17;1750416;82;21025;-89
2021/09/19 04:22:26;;;;;;;7.95;5.10;;;;;;;9.61;97.73;100108.45;1750365;82;20982;-89
2021/09/19 04:24:55;;;;;;;6.60;5.35;;;;;;;9.62;97.78;100108.80;1705843;82;20998;-89
2021/09/19 04:27:22;;;;;;;6.83;5.03;;;;;;;9.62;97.71;100112.75;1690660;85;21015;-88
2021/09/19 04:29:48;;;;;;;8.73;5.10;;;;;;;9.63;97.78;100114.91;1690998;85;21026;-90
2021/09/19 04:32:14;;;;;;;9.60;5.47;;;;;;;9.63;97.75;100121.49;1690629;85;21111;-90
2021/09/19 04:34:40;;;;;;;8.30;5.42;;;;;;;9.62;97.73;100114.55;1750461;82;21443;-90
2021/09/19 04:37:07;;;;;;;8.70;5.22;;;;;;;9.61;97.53;100117.67;1722961;82;20986;-89
2021/09/19 04:39:33;;;;;;;10.28;5.25;;;;;;;9.59;97.81;100114.29;1720617;83;21057;-89
2021/09/19 04:41:59;;;;;;;7.08;5.37;;;;;;;9.60;97.79;100117.77;1695194;82;21094;-88
2021/09/19 04:44:25;;;;;;;9.95;6.12;;;;;;;9.62;97.87;100126.41;1733126;82;21002;-89
2021/09/19 04:46:51;;;;;;;7.83;5.00;;;;;;;9.61;97.61;100125.57;1721283;82;21013;-89
2021/09/19 04:49:17;;;;;;;6.03;5.15;;;;;;;9.62;97.73;100131.20;1699907;83;21003;-89
2021/09/19 04:51:43;;;;;;;7.15;5.72;;;;;;;9.62;97.69;100134.31;1713200;83;21513;-91
2021/09/19 04:54:09;;;;;;;8.65;5.50;;;;;;;9.63;97.74;100134.19;1738331;81;20978;-89
2021/09/19 04:56:35;;;;;;;8.20;5.78;;;;;;;9.62;97.54;100132.99;1766364;81;21531;-90
2021/09/19 04:59:01;;;;;;;7.67;5.37;;;;;;;9.61;97.71;100128.20;1739058;81;20989;-90
2021/09/19 05:01:27;;;;;;;8.75;5.33;;;;;;;9.61;97.70;100136.11;1745753;82;20989;-90
2021/09/19 05:03:52;;;;;;;10.70;5.15;;;;;;;9.62;97.72;100135.14;1746027;81;21033;-89
2021/09/19 05:06:18;;;;;;;8.25;5.92;;;;;;;9.63;97.62;100141.25;1743721;82;20981;-92
2021/09/19 05:08:44;;;;;;;7.08;5.40;;;;;;;9.61;97.58;100139.22;1723360;81;21631;-91
2021/09/19 05:11:10;;;;;;;7.45;4.83;;;;;;;9.59;97.46;100142.43;1724608;82;21081;-90
2021/09/19 05:13:36;;;;;;;8.38;5.92;;;;;;;9.56;97.24;100137.38;1753057;82;20953;-89
2021/09/19 05:16:02;;;;;;;7.58;5.75;;;;;;;9.54;97.12;100140.14;1749794;82;21032;-89
2021/09/19 05:18:28;;;;;;;8.55;5.70;;;;;;;9.52;97.19;100134.12;1758060;81;21476;-89
2021/09/19 05:20:54;;;;;;;8.28;6.45;;;;;;;9.52;97.44;100138.55;1758144;81;20994;-89
2021/09/19 05:23:20;;;;;;;8.45;6.00;;;;;;;9.52;97.42;100138.08;1738263;81;20965;-89
2021/09/19 05:25:46;;;;;;;7.15;5.87;;;;;;;9.50;97.29;100129.91;1750691;82;21028;-89
2021/09/19 05:28:12;;;;;;;10.58;6.12;;;;;;;9.50;97.29;100136.49;1758085;81;20993;-90
2021/09/19 05:30:38;;;;;;;9.00;6.35;;;;;;;9.51;97.46;100132.90;1754022;82;20977;-89
2021/09/19 05:33:04;;;;;;;10.18;6.47;;;;;;;9.51;97.63;100134.22;1731763;82;21523;-89
2021/09/19 05:35:30;;;;;;;8.78;5.85;;;;;;;9.52;97.61;100134.61;1748002;82;21379;-90
2021/09/19 05:37:56;;;;;;;13.40;6.72;;;;;;;9.52;97.63;100133.28;1710874;81;21551;-88
2021/09/19 05:40:22;;;;;;;8.88;6.62;;;;;;;9.53;97.80;100131.01;1696004;82;21058;-90
2021/09/19 05:42:48;;;;;;;10.03;5.37;;;;;;;9.55;97.96;100133.07;1732994;82;21063;-88
2021/09/19 05:45:15;;;;;;;8.20;6.05;;;;;;;9.56;98.11;100138.70;1704482;82;21498;-89
2021/09/19 05:47:41;;;;;;;8.50;6.53;;;;;;;9.60;98.18;100134.88;1710664;83;21042;-89
2021/09/19 05:50:08;;;;;;;9.75;5.92;;;;;;;9.62;98.29;100136.94;1698244;82;21047;-88
2021/09/19 05:52:34;;;;;;;9.78;6.37;;;;;;;9.66;98.51;100140.20;1757489;81;21001;-88
2021/09/19 05:55:00;;;;;;;10.35;6.45;;;;;;;9.68;98.42;100141.78;1757928;81;21107;-92
2021/09/19 05:57:26;;;;;;;13.90;7.22;;;;;;;9.71;98.47;100145.52;1734421;82;20998;-90
2021/09/19 05:59:54;;;;;;;8.15;6.10;;;;;;;9.71;98.16;100140.24;1690801;85;20992;-90
2021/09/19 06:02:20;;;;;;;8.58;6.33;;;;;;;9.72;98.25;100145.87;1709555;83;21484;-90
2021/09/19 06:04:46;;;;;;;9.08;7.10;;;;;;;9.76;98.25;100143.85;1719750;83;21468;-91
2021/09/19 06:07:12;;;;;;;9.50;6.47;;;;;;;9.78;98.32;100141.48;1719493;83;21016;-90
2021/09/19 06:09:38;;;;;;;9.33;6.70;;;;;;;9.80;98.05;100147.94;1719568;83;21018;-91
2021/09/19 06:12:04;;;;;;;7.85;6.80;;;;;;;9.80;98.01;100140.88;1719680;83;21136;-91
2021/09/19 06:14:30;;;;;;;9.18;6.25;;;;;;;9.82;98.15;100143.41;1719487;83;21489;-90
2021/09/19 06:16:56;;;;;;;11.30;6.58;;;;;;;9.84;98.21;100141.52;1719249;83;21030;-90
2021/09/19 06:19:22;;;;;;;8.88;6.90;;;;;;;9.86;98.16;100147.02;1719475;83;21014;-90
2021/09/19 06:21:48;;;;;;;10.55;7.65;;;;;;;9.89;98.23;100147.28;1719521;83;21066;-90
2021/09/19 06:24:17;;;;;;;10.72;7.10;;;;;;;9.92;98.35;100145.74;1714644;83;21473;-89
2021/09/19 06:26:43;;;;;;;10.85;6.10;;;;;;;9.95;98.13;100147.32;1690191;84;21358;-89
2021/09/19 06:29:09;;;;;;;10.95;7.70;;;;;;;9.96;98.18;100141.92;1690954;85;21054;-90
2021/09/19 06:31:35;;;;;;;11.05;6.72;;;;;;;10.00;98.30;100150.45;1690413;85;21050;-91
2021/09/19 06:34:01;;;;;;;8.95;7.20;;;;;;;10.01;97.93;100150.83;1690820;85;20987;-90
2021/09/19 06:36:27;;;;;;;11.18;6.50;;;;;;;10.04;98.03;100153.25;1690768;84;21019;-90
2021/09/19 06:38:53;;;;;;;10.75;7.08;;;;;;;10.06;97.81;100152.16;1690490;85;21042;-90
2021/09/19 06:41:18;;;;;;;11.75;7.70;;;;;;;10.06;97.59;100148.20;1690587;85;21458;-90
2021/09/19 06:43:45;;;;;;;11.15;8.15;;;;;;;10.09;97.58;100152.41;1690433;85;20979;-89
2021/09/19 06:46:11;;;;;;;11.22;8.10;;;;;;;10.12;97.90;100156.15;1690897;85;21034;-90
2021/09/19 06:48:37;;;;;;;10.82;6.75;;;;;;;10.17;97.90;100150.52;1722111;82;21014;-91
2021/09/19 06:51:03;;;;;;;11.35;7.37;;;;;;;10.19;97.72;100162.65;1736094;82;21067;-91
2021/09/19 06:53:29;;;;;;;9.78;6.90;;;;;;;10.20;97.61;100161.72;1750316;82;21006;-91
2021/09/19 06:55:58;;;;;;;9.80;7.08;;;;;;;10.20;97.45;100157.77;1750211;82;21468;-90
2021/09/19 06:58:27;;;;;;;11.93;8.25;;;;;;;10.24;97.54;100161.02;1695979;82;20996;-90
2021/09/19 07:00:59;;;;;;;10.95;7.30;;;;;;;10.27;97.66;100155.55;1728873;82;20978;-91
2021/09/19 07:03:23;;;;;;;9.78;7.45;;;;;;;10.29;97.53;100155.77;1748657;82;21519;-91
2021/09/19 07:05:54;;;;;;;11.63;7.35;;;;;;;10.31;97.62;100152.55;1750261;82;21041;-90
2021/09/19 07:08:26;;;;;;;10.40;6.85;;;;;;;10.37;97.73;100153.07;1750086;82;21507;-91
2021/09/19 07:10:56;;;;;;;12.27;8.13;;;;;;;10.41;97.56;100154.52;1750548;82;21469;-90
2021/09/19 07:13:22;;;;;;;9.68;7.25;;;;;;;10.45;97.71;100158.59;1750376;82;21009;-91
2021/09/19 07:15:52;;;;;;;10.25;7.60;;;;;;;10.47;97.61;100151.42;1737865;82;20978;-90
2021/09/19 07:18:21;;;;;;;9.75;7.03;;;;;;;10.48;97.59;100159.20;1725413;82;21061;-91
2021/09/19 07:20:52;;;;;;;10.05;7.42;;;;;;;10.51;97.15;100156.83;1702058;83;20988;-90
2021/09/19 07:23:20;;;;;;;8.50;6.70;;;;;;;10.52;97.03;100163.29;1718833;83;21099;-90
2021/09/19 07:25:51;;;;;;;10.50;7.37;;;;;;;10.54;96.98;100157.91;1697813;83;21001;-89
2021/09/19 07:28:18;;;;;;;11.18;6.35;;;;;;;10.56;97.20;100157.30;1687153;85;21006;-90
2021/09/19 07:30:48;;;;;;;9.65;6.60;;;;;;;10.60;96.82;100159.27;1727140;81;20989;-90
2021/09/19 07:33:18;;;;;;;9.28;7.10;;;;;;;10.62;96.60;100158.65;1725490;81;21065;-90
2021/09/19 07:35:49;;;;;;;10.32;7.22;;;;;;;10.66;96.76;100161.41;1759189;81;21049;-90
2021/09/19 07:38:17;;;;;;;8.58;6.45;;;;;;;10.67;96.74;100158.67;1680213;83;21043;-90
2021/09/19 07:40:48;;;;;;;9.60;7.40;;;;;;;10.70;96.53;100158.44;1688722;85;20999;-91
2021/09/19 07:43:18;;;;;;;10.10;7.42;;;;;;;10.72;96.32;100157.83;1664822;85;21063;-89
2021/09/19 07:45:47;;;;;;;8.65;6.50;;;;;;;10.76;96.42;100159.78;1688569;85;21004;-90
2021/09/19 07:48:18;;;;;;;8.95;7.05;;;;;;;10.80;96.34;100159.42;1688617;85;21542;-90
2021/09/19 07:50:44;;;;;;;10.03;7.00;;;;;;;10.83;96.06;100159.67;1665180;85;21047;-90
2021/09/19 07:53:11;;;;;;;7.75;6.80;;;;;;;10.84;96.02;100156.07;1688682;85;21601;-90
2021/09/19 07:55:37;;;;;;;9.83;6.65;;;;;;;10.89;95.97;100159.66;1696211;83;21038;-90
2021/09/19 07:58:03;;;;;;;8.80;6.10;;;;;;;10.94;96.22;100158.36;1718847;83;21541;-91
2021/09/19 08:00:30;;;;;;;8.35;6.28;;;;;;;10.97;95.79;100163.89;1719087;83;21095;-91
2021/09/19 08:02:56;;;;;;;7.60;5.90;;;;;;;11.01;95.87;100161.38;1718883;83;21537;-90
2021/09/19 08:05:23;;;;;;;8.95;6.08;;;;;;;11.07;95.30;100166.67;1719002;83;21086;-91
2021/09/19 08:07:50;;;;;;;8.98;6.62;;;;;;;11.10;95.36;100169.91;1719042;83;20999;-92
2021/09/19 08:10:17;;;;;;;6.83;5.15;;;;;;;11.13;95.07;100173.64;1718936;83;21095;-90
2021/09/19 08:12:46;;;;;;;6.85;5.28;;;;;;;11.15;94.46;100173.02;1718957;83;21026;-90
2021/09/19 08:15:11;;;;;;;13.48;6.60;;;;;;;11.18;94.74;100173.27;1718387;83;21027;-91
2021/09/19 08:17:38;;;;;;;5.95;5.05;;;;;;;11.22;94.48;100178.66;1690210;85;21025;-91
2021/09/19 08:20:05;;;;;;;7.83;4.90;;;;;;;11.23;93.76;100175.92;1717267;82;21056;-91
2021/09/19 08:22:31;;;;;;;6.15;4.45;;;;;;;11.24;93.73;100173.63;1727442;83;21085;-90
2021/09/19 08:25:00;;;;;;;5.83;4.37;;;;;;;11.28;93.33;100174.23;1727857;83;21041;-92
2021/09/19 08:27:25;;;;;;;8.18;4.65;;;;;;;11.31;92.70;100175.80;1751607;82;21049;-92
2021/09/19 08:29:51;;;;;;;7.70;4.50;;;;;;;11.32;93.08;100178.34;1753190;82;21492;-91
2021/09/19 08:32:17;;;;;;;5.75;4.55;;;;;;;11.34;92.65;100180.36;1753423;82;21042;-90
2021/09/19 08:34:43;;;;;;;5.87;4.35;;;;;;;11.36;92.49;100177.62;1753539;82;21022;-92
2021/09/19 08:37:09;;;;;;;6.10;4.30;;;;;;;11.36;92.36;100178.45;1753348;82;21007;-91
2021/09/19 08:39:35;;;;;;;5.30;4.60;;;;;;;11.41;91.67;100186.01;1753641;82;20994;-91
2021/09/19 08:42:01;;;;;;;5.78;3.92;;;;;;;11.43;92.22;100178.81;1753442;82;21010;-90
2021/09/19 08:44:28;;;;;;;4.37;3.45;;;;;;;11.48;91.68;100185.87;1753584;82;21045;-90
2021/09/19 08:46:54;;;;;;;5.25;3.17;;;;;;;11.51;91.72;100183.83;1753350;82;21005;-91
2021/09/19 08:49:20;;;;;;;7.15;4.00;;;;;;;11.55;91.41;100188.88;1753418;82;21543;-91
2021/09/19 08:51:46;;;;;;;5.62;3.33;;;;;;;11.56;90.42;100188.78;1753518;82;21033;-91
2021/09/19 08:54:12;;;;;;;4.45;3.30;;;;;;;11.59;90.74;100187.22;1753650;82;21295;-91
2021/09/19 08:56:38;;;;;;;4.22;3.22;;;;;;;11.60;91.41;100188.89;1740202;82;21015;-91
2021/09/19 08:59:04;;;;;;;4.62;2.72;;;;;;;11.68;90.39;100191.78;1724803;82;21028;-90
2021/09/19 09:01:30;;;;;;;6.45;3.92;;;;;;;11.68;90.39;100191.78;1727598;83;21061;-91
2021/09/19 09:04:04;;;;;;;4.37;3.50;;;;;;;11.70;89.84;100190.32;1727649;83;21048;-91
2021/09/19 09:06:38;;;;;;;4.03;2.77;;;;;;;11.72;90.48;100187.09;1727556;83;20977;-92
2021/09/19 09:09:17;;;;;;;4.30;3.10;;;;;;;11.73;89.70;100185.63;1727750;83;21041;-90
2021/09/19 09:12:07;;;;;;;5.42;2.87;;;;;;;11.76;89.34;100183.23;1727320;83;21041;-91
2021/09/19 09:14:52;;;;;;;3.67;2.98;;;;;;;11.78;89.40;100177.80;1727069;83;21594;-91
2021/09/19 09:17:21;;;;;;;4.50;3.12;;;;;;;11.81;89.04;100176.23;1727690;83;21611;-92
2021/09/19 09:19:52;;;;;;;5.28;3.42;;;;;;;11.85;88.93;100181.70;1728238;83;22256;-91
2021/09/19 09:22:24;;;;;;;6.67;2.85;;;;;;;11.89;89.64;100178.67;1723361;83;21507;-91
2021/09/19 09:25:13;;;;;;;4.90;3.47;;;;;;;11.95;88.97;100182.15;1720988;83;21015;-91
2021/09/19 09:27:48;;;;;;;5.20;3.50;;;;;;;11.99;88.85;100184.06;1719450;83;21015;-91
2021/09/19 09:30:22;;;;;;;7.25;4.83;;;;;;;12.02;88.25;100179.02;1719606;83;21526;-92
2021/09/19 09:33:04;;;;;;;4.97;3.37;;;;;;;12.04;88.78;100182.36;1718930;83;21582;-92
2021/09/19 09:35:37;;;;;;;5.70;3.75;;;;;;;12.06;89.57;100182.59;1719698;83;21007;-91
2021/09/19 09:38:23;;;;;;;6.55;3.47;;;;;;;12.10;88.98;100181.86;1719485;83;21058;-91
2021/09/19 09:40:51;;;;;;;4.35;3.22;;;;;;;12.13;88.58;100191.70;1719679;83;21058;-92
2021/09/19 09:43:19;;;;;;;7.33;3.67;;;;;;;12.16;88.27;100184.84;1714388;83;20982;-91
2021/09/19 09:45:48;;;;;;;7.12;4.15;;;;;;;12.19;88.49;100189.89;1690880;85;21034;-91
2021/09/19 09:48:38;;;;;;;7.03;3.12;;;;;;;12.23;88.79;100184.35;1690737;85;21005;-91
2021/09/19 09:51:03;;;;;;;8.63;3.05;;;;;;;12.26;87.91;100181.45;1690071;82;21045;-90
2021/09/19 09:53:30;;;;;;;5.05;3.30;;;;;;;12.28;87.35;100179.53;1726235;82;21043;-91
2021/09/19 09:55:59;;;;;;;5.85;3.50;;;;;;;12.31;87.57;100180.13;1719557;83;21026;-91
2021/09/19 09:58:26;;;;;;;3.87;3.20;;;;;;;12.35;87.26;100180.22;1719516;83;20984;-89
2021/09/19 10:00:54;;;;;;;3.47;2.90;;;;;;;12.39;87.18;100176.84;1696731;83;21011;-89
2021/09/19 10:03:21;;;;;;;5.42;3.52;;;;;;;12.43;87.58;100183.06;1690564;85;21094;-90
2021/09/19 10:05:47;;;;;;;3.17;2.47;;;;;;;12.46;86.94;100182.46;1690785;85;21545;-90
2021/09/19 10:08:14;;;;;;;5.62;2.90;;;;;;;12.47;87.26;100177.06;1694274;83;21019;-91
2021/09/19 10:10:43;;;;;;;6.03;3.30;;;;;;;12.46;86.27;100174.03;1717001;83;20986;-90
2021/09/19 10:13:12;;;;;;;4.72;3.12;;;;;;;12.49;86.76;100187.02;1745519;82;21307;-91
2021/09/19 10:15:38;;;;;;;5.83;2.67;;;;;;;12.51;86.41;100170.54;1757972;81;21033;-88
2021/09/19 10:18:05;;;;;;;4.70;2.77;;;;;;;12.54;86.82;100170.28;1732408;81;21035;-88
2021/09/19 10:20:45;;;;;;;6.58;3.27;;;;;;;12.60;87.13;100166.27;1722926;81;21479;-89
2021/09/19 10:23:34;;;;;;;4.92;3.80;;;;;;;12.66;86.08;100175.02;1724209;83;21030;-88
2021/09/19 10:26:08;;;;;;;14.93;4.40;;;;;;;12.70;85.39;100168.98;1726081;83;21005;-81
2021/09/19 10:28:38;;;;;;;4.12;2.98;;;;;;;12.73;85.74;100168.73;1733205;81;20990;-79
2021/09/19 10:31:21;;;;;;;4.03;2.60;;;;;;;12.77;85.23;100175.47;1743377;81;21011;-78
2021/09/19 10:34:02;;;;;;;;;;;;;;;12.78;85.39;100173.16;1732213;83;21046;-88
2021/09/19 10:36:39;;;;;;;4.92;2.95;;;;;;;12.82;85.06;100166.63;1713995;81;20409;-88
2021/09/19 10:39:25;;;;;;;4.58;2.67;;;;;;;12.82;84.46;100167.47;1703975;83;21411;-89
2021/09/19 10:42:30;;;;;;;5.58;3.70;;;;;;;12.79;84.56;100166.89;1730452;83;21010;-89
2021/09/19 10:45:06;;;;;;;4.97;2.58;;;;;;;12.81;85.44;100172.42;1706162;83;21055;-89
2021/09/19 10:47:50;;;;;;;4.92;3.17;;;;;;;12.85;85.22;100167.70;1707081;83;21037;-88
2021/09/19 10:50:25;;;;;;;4.67;3.15;;;;;;;12.87;85.28;100175.04;1708116;83;21077;-87
2021/09/19 10:53:14;;;;;;;5.30;2.70;;;;;;;12.90;85.50;100176.95;1726655;83;21063;-87
2021/09/19 10:56:01;;;;;;;4.28;2.70;;;;;;;12.91;84.23;100173.81;1690010;85;20993;-89
2021/09/19 10:58:47;;;;;;;3.67;2.47;;;;;;;12.90;84.61;100181.41;1727162;83;21002;-88
2021/09/19 11:01:19;;;;;;;4.12;3.20;;;;;;;12.90;84.51;100181.41;1730239;83;21014;-89
2021/09/19 11:04:15;;;;;;;5.87;3.77;;;;;;;12.90;84.17;100178.76;1723261;83;21516;-88
2021/09/19 11:06:42;;;;;;;3.30;2.87;;;;;;;12.93;84.59;100178.95;1717484;83;21042;-88
2021/09/19 11:09:29;;;;;;;4.30;2.77;;;;;;;12.98;84.39;100179.42;1729885;83;21006;-88
2021/09/19 11:12:22;;;;;;;6.08;3.17;;;;;;;13.00;85.03;100174.84;1692683;83;21009;-88
2021/09/19 11:15:06;;;;;;;5.50;2.87;;;;;;;13.06;84.29;100172.52;1717750;81;21575;-88
2021/09/19 11:17:37;;;;;;;4.65;3.10;;;;;;;13.12;85.04;100173.77;1699269;83;21426;-89
2021/09/19 11:20:21;;;;;;;5.80;2.90;;;;;;;13.17;83.85;100169.42;1717945;81;21005;-89
2021/09/19 11:22:52;;;;;;;;;;;;;;;13.18;83.70;100167.95;1716964;82;21015;-88
2021/09/19 11:25:23;;;;;;;4.03;2.95;;;;;;;13.22;84.37;100164.55;1716701;81;20141;-87
2021/09/19 11:27:52;;;;;;;4.55;3.10;;;;;;;13.24;83.73;100163.95;1722165;82;21071;-88
2021/09/19 11:30:21;;;;;;;3.87;2.85;;;;;;;13.24;83.64;100163.95;1726680;81;21017;-88
2021/09/19 11:32:48;;;;;;;7.70;3.35;;;;;;;13.24;84.02;100160.84;1728701;81;21075;-89